sensor_id;sensor_type;location;lat;lon;timestamp;temperature;humidity
4293;DHT22;2160;51.172;6.808;2023-02-22T05:02:54;10.40;99.90
4293;DHT22;2160;51.172;6.808;2023-02-22T05:05:22;10.30;99.90
4293;DHT22;2160;51.172;6.808;2023-02-22T05:07:49;10.10;99.90
4293;DHT22;2160;51.172;6.808;2023-02-22T05:10:17;10.10;99.90
4293;DHT22;2160;51.172;6.808;2023-02-22T05:12:45;10.10;99.90
4293;DHT22;2160;51.172;6.808;2023-02-22T05:15:15;10.10;99.90
4293;DHT22;2160;51.172;6.808;2023-02-22T05:17:43;10.10;99.90
4293;DHT22;2160;51.172;6.808;2023-02-22T05:20:16;10.30;99.90
4293;DHT22;2160;51.172;6.808;2023-02-22T05:22:43;9.90;99.90
4293;DHT22;2160;51.172;6.808;2023-02-22T05:25:10;9.80;99.90
4293;DHT22;2160;51.172;6.808;2023-02-22T05:27:37;9.70;99.90
4293;DHT22;2160;51.172;6.808;2023-02-22T05:30:05;9.80;99.90
4293;DHT22;2160;51.172;6.808;2023-02-22T05:32:33;9.80;99.90
4293;DHT22;2160;51.172;6.808;2023-02-22T05:35:00;9.80;99.90
4293;DHT22;2160;51.172;6.808;2023-02-22T05:37:29;9.80;99.90
4293;DHT22;2160;51.172;6.808;2023-02-22T05:39:56;9.90;99.90
4293;DHT22;2160;51.172;6.808;2023-02-22T05:42:22;9.90;99.90
4293;DHT22;2160;51.172;6.808;2023-02-22T05:44:49;10.10;99.90
4293;DHT22;2160;51.172;6.808;2023-02-22T05:47:16;10.10;99.90
4293;DHT22;2160;51.172;6.808;2023-02-22T05:49:43;10.00;99.90
4293;DHT22;2160;51.172;6.808;2023-02-22T05:52:10;10.10;99.90
4293;DHT22;2160;51.172;6.808;2023-02-22T05:54:38;10.20;99.90
4293;DHT22;2160;51.172;6.808;2023-02-22T05:57:07;10.30;99.90
4293;DHT22;2160;51.172;6.808;2023-02-22T05:59:33;10.40;99.90
4293;DHT22;2160;51.172;6.808;2023-02-22T06:02:00;10.30;99.90
4293;DHT22;2160;51.172;6.808;2023-02-22T06:04:27;10.30;99.90
4293;DHT22;2160;51.172;6.808;2023-02-22T06:06:55;10.20;99.90
4293;DHT22;2160;51.172;6.808;2023-02-22T06:09:22;10.20;99.90
4293;DHT22;2160;51.172;6.808;2023-02-22T06:11:50;10.20;99.90
4293;DHT22;2160;51.172;6.808;2023-02-22T06:14:17;10.20;99.90
4293;DHT22;2160;51.172;6.808;2023-02-22T06:16:51;10.30;99.90
4293;DHT22;2160;51.172;6.808;2023-02-22T06:19:18;10.20;99.90
4293;DHT22;2160;51.172;6.808;2023-02-22T06:21:48;10.20;99.90
4293;DHT22;2160;51.172;6.808;2023-02-22T06:24:15;10.10;99.90
4293;DHT22;2160;51.172;6.808;2023-02-22T06:26:42;10.00;99.90
4293;DHT22;2160;51.172;6.808;2023-02-22T06:29:11;10.00;99.90
4293;DHT22;2160;51.172;6.808;2023-02-22T06:31:38;10.00;99.90
4293;DHT22;2160;51.172;6.808;2023-02-22T06:34:05;10.10;99.90
4293;DHT22;2160;51.172;6.808;2023-02-22T06:36:32;10.00;99.90
4293;DHT22;2160;51.172;6.808;2023-02-22T06:38:59;9.80;99.90
4293;DHT22;2160;51.172;6.808;2023-02-22T06:41:25;9.70;99.90
4293;DHT22;2160;51.172;6.808;2023-02-22T06:43:52;9.70;99.90
4293;DHT22;2160;51.172;6.808;2023-02-22T06:46:21;9.70;99.90
4293;DHT22;2160;51.172;6.808;2023-02-22T06:48:48;9.70;99.90
4293;DHT22;2160;51.172;6.808;2023-02-22T06:51:16;9.70;99.90
4293;DHT22;2160;51.172;6.808;2023-02-22T06:53:43;9.70;99.90
4293;DHT22;2160;51.172;6.808;2023-02-22T06:56:10;9.70;99.90
4293;DHT22;2160;51.172;6.808;2023-02-22T06:58:37;9.70;99.90
4293;DHT22;2160;51.172;6.808;2023-02-22T07:01:04;9.50;99.90
4293;DHT22;2160;51.172;6.808;2023-02-22T07:03:34;9.50;99.90
4293;DHT22;2160;51.172;6.808;2023-02-22T07:06:01;9.60;99.90
4293;DHT22;2160;51.172;6.808;2023-02-22T07:08:29;9.60;99.90
4293;DHT22;2160;51.172;6.808;2023-02-22T07:10:56;9.70;99.90
4293;DHT22;2160;51.172;6.808;2023-02-22T07:13:23;9.70;99.90
4293;DHT22;2160;51.172;6.808;2023-02-22T07:15:50;9.80;99.90
4293;DHT22;2160;51.172;6.808;2023-02-22T07:18:17;9.60;99.90
4293;DHT22;2160;51.172;6.808;2023-02-22T07:20:46;9.60;99.90
4293;DHT22;2160;51.172;6.808;2023-02-22T07:23:13;9.60;99.90
4293;DHT22;2160;51.172;6.808;2023-02-22T07:25:41;9.70;99.90
4293;DHT22;2160;51.172;6.808;2023-02-22T07:28:08;9.60;99.90
4293;DHT22;2160;51.172;6.808;2023-02-22T07:30:36;9.70;99.90
4293;DHT22;2160;51.172;6.808;2023-02-22T07:33:06;9.80;99.90
4293;DHT22;2160;51.172;6.808;2023-02-22T07:35:35;9.60;99.90
4293;DHT22;2160;51.172;6.808;2023-02-22T07:38:05;9.50;99.90
4293;DHT22;2160;51.172;6.808;2023-02-22T07:40:33;9.50;99.90
4293;DHT22;2160;51.172;6.808;2023-02-22T07:43:01;9.60;99.90
4293;DHT22;2160;51.172;6.808;2023-02-22T07:45:31;9.60;99.90
4293;DHT22;2160;51.172;6.808;2023-02-22T07:47:58;9.70;99.90
4293;DHT22;2160;51.172;6.808;2023-02-22T07:50:27;9.70;99.90
4293;DHT22;2160;51.172;6.808;2023-02-22T07:52:56;9.80;99.90
4293;DHT22;2160;51.172;6.808;2023-02-22T07:55:27;10.00;99.90
4293;DHT22;2160;51.172;6.808;2023-02-22T07:57:56;9.90;99.90
4293;DHT22;2160;51.172;6.808;2023-02-22T08:00:25;9.90;99.90
4293;DHT22;2160;51.172;6.808;2023-02-22T08:02:53;10.00;99.90
4293;DHT22;2160;51.172;6.808;2023-02-22T08:05:22;10.00;99.90
4293;DHT22;2160;51.172;6.808;2023-02-22T08:07:49;10.00;99.90
4293;DHT22;2160;51.172;6.808;2023-02-22T08:10:18;10.10;99.90
4293;DHT22;2160;51.172;6.808;2023-02-22T08:12:46;10.10;99.90
4293;DHT22;2160;51.172;6.808;2023-02-22T08:15:16;10.10;99.90
4293;DHT22;2160;51.172;6.808;2023-02-22T08:17:43;10.10;99.90
4293;DHT22;2160;51.172;6.808;2023-02-22T08:20:10;10.20;99.90
4293;DHT22;2160;51.172;6.808;2023-02-22T08:22:37;10.30;99.90
4293;DHT22;2160;51.172;6.808;2023-02-22T08:25:05;10.20;99.90
4293;DHT22;2160;51.172;6.808;2023-02-22T08:27:32;10.30;99.90
4293;DHT22;2160;51.172;6.808;2023-02-22T08:30:00;10.50;99.90
4293;DHT22;2160;51.172;6.808;2023-02-22T08:32:27;10.40;99.90
4293;DHT22;2160;51.172;6.808;2023-02-22T08:34:54;10.50;99.90
4293;DHT22;2160;51.172;6.808;2023-02-22T08:37:21;10.60;99.90
4293;DHT22;2160;51.172;6.808;2023-02-22T08:39:48;10.70;99.90
4293;DHT22;2160;51.172;6.808;2023-02-22T08:42:15;10.70;99.90
4293;DHT22;2160;51.172;6.808;2023-02-22T08:44:42;10.60;99.90
4293;DHT22;2160;51.172;6.808;2023-02-22T08:47:10;10.70;99.90
4293;DHT22;2160;51.172;6.808;2023-02-22T08:49:37;10.70;99.90
4293;DHT22;2160;51.172;6.808;2023-02-22T08:52:04;10.80;99.90
4293;DHT22;2160;51.172;6.808;2023-02-22T08:54:31;10.80;99.90
4293;DHT22;2160;51.172;6.808;2023-02-22T08:56:58;10.60;99.90
4293;DHT22;2160;51.172;6.808;2023-02-22T08:59:25;10.70;99.90
4293;DHT22;2160;51.172;6.808;2023-02-22T09:01:52;10.50;99.90
4293;DHT22;2160;51.172;6.808;2023-02-22T09:04:21;10.50;99.90
4293;DHT22;2160;51.172;6.808;2023-02-22T09:06:48;10.60;99.90
4293;DHT22;2160;51.172;6.808;2023-02-22T09:09:17;10.70;99.90
4293;DHT22;2160;51.172;6.808;2023-02-22T09:11:46;10.70;99.90
4293;DHT22;2160;51.172;6.808;2023-02-22T09:14:13;10.90;99.90
4293;DHT22;2160;51.172;6.808;2023-02-22T09:16:41;11.00;99.90
4293;DHT22;2160;51.172;6.808;2023-02-22T09:19:08;11.00;99.90
4293;DHT22;2160;51.172;6.808;2023-02-22T09:21:37;11.10;99.90
4293;DHT22;2160;51.172;6.808;2023-02-22T09:24:05;11.20;99.90
4293;DHT22;2160;51.172;6.808;2023-02-22T09:26:34;10.90;99.90
4293;DHT22;2160;51.172;6.808;2023-02-22T09:29:05;11.00;99.90
4293;DHT22;2160;51.172;6.808;2023-02-22T09:31:35;11.00;99.90
4293;DHT22;2160;51.172;6.808;2023-02-22T09:34:03;11.10;99.90
4293;DHT22;2160;51.172;6.808;2023-02-22T09:36:31;11.30;99.90
4293;DHT22;2160;51.172;6.808;2023-02-22T09:39:00;11.50;99.90
4293;DHT22;2160;51.172;6.808;2023-02-22T09:41:31;11.50;99.90
4293;DHT22;2160;51.172;6.808;2023-02-22T09:44:12;11.50;99.90
4293;DHT22;2160;51.172;6.808;2023-02-22T09:46:41;11.60;99.90
4293;DHT22;2160;51.172;6.808;2023-02-22T09:49:17;11.70;99.90
4293;DHT22;2160;51.172;6.808;2023-02-22T09:51:48;11.60;99.90
4293;DHT22;2160;51.172;6.808;2023-02-22T09:54:22;11.80;99.90
4293;DHT22;2160;51.172;6.808;2023-02-22T09:56:54;11.60;99.90
4293;DHT22;2160;51.172;6.808;2023-02-22T09:59:26;11.50;99.90
4293;DHT22;2160;51.172;6.808;2023-02-22T10:02:00;11.70;99.90
4293;DHT22;2160;51.172;6.808;2023-02-22T10:04:39;11.90;99.90
4293;DHT22;2160;51.172;6.808;2023-02-22T10:07:17;12.00;99.90
4293;DHT22;2160;51.172;6.808;2023-02-22T10:09:48;12.20;99.90
4293;DHT22;2160;51.172;6.808;2023-02-22T10:12:24;12.50;99.90
4293;DHT22;2160;51.172;6.808;2023-02-22T10:15:15;12.40;99.90
4293;DHT22;2160;51.172;6.808;2023-02-22T10:17:52;12.40;99.90
4293;DHT22;2160;51.172;6.808;2023-02-22T10:20:28;12.50;99.90
4293;DHT22;2160;51.172;6.808;2023-02-22T10:23:06;12.60;99.90
4293;DHT22;2160;51.172;6.808;2023-02-22T10:25:38;12.60;99.90
4293;DHT22;2160;51.172;6.808;2023-02-22T10:28:10;12.70;99.90
4293;DHT22;2160;51.172;6.808;2023-02-22T10:30:42;13.00;99.90
4293;DHT22;2160;51.172;6.808;2023-02-22T10:33:13;13.20;99.90
4293;DHT22;2160;51.172;6.808;2023-02-22T10:35:49;13.50;99.90
4293;DHT22;2160;51.172;6.808;2023-02-22T10:38:19;13.40;99.90
4293;DHT22;2160;51.172;6.808;2023-02-22T10:40:53;13.40;99.90
4293;DHT22;2160;51.172;6.808;2023-02-22T10:43:21;13.50;99.90
4293;DHT22;2160;51.172;6.808;2023-02-22T10:45:52;13.60;99.90
4293;DHT22;2160;51.172;6.808;2023-02-22T10:48:22;13.70;99.90
4293;DHT22;2160;51.172;6.808;2023-02-22T10:50:51;13.80;99.90
4293;DHT22;2160;51.172;6.808;2023-02-22T10:53:20;14.00;99.90
4293;DHT22;2160;51.172;6.808;2023-02-22T10:56:08;14.10;99.90
4293;DHT22;2160;51.172;6.808;2023-02-22T10:58:49;14.10;99.90
4293;DHT22;2160;51.172;6.808;2023-02-22T11:01:23;14.20;99.90
4293;DHT22;2160;51.172;6.808;2023-02-22T11:04:00;14.10;99.90
4293;DHT22;2160;51.172;6.808;2023-02-22T11:06:29;14.20;99.90
4293;DHT22;2160;51.172;6.808;2023-02-22T11:09:13;14.30;99.90
4293;DHT22;2160;51.172;6.808;2023-02-22T11:11:45;14.30;99.90
4293;DHT22;2160;51.172;6.808;2023-02-22T11:14:24;14.30;99.90
4293;DHT22;2160;51.172;6.808;2023-02-22T11:16:53;14.30;99.90
4293;DHT22;2160;51.172;6.808;2023-02-22T11:19:24;14.30;99.90
4293;DHT22;2160;51.172;6.808;2023-02-22T11:21:54;14.30;99.90
4293;DHT22;2160;51.172;6.808;2023-02-22T11:24:23;14.40;99.90
4293;DHT22;2160;51.172;6.808;2023-02-22T11:26:55;14.60;99.90
4293;DHT22;2160;51.172;6.808;2023-02-22T11:29:26;14.40;99.90
4293;DHT22;2160;51.172;6.808;2023-02-22T11:31:57;14.40;99.90
4293;DHT22;2160;51.172;6.808;2023-02-22T11:34:31;14.60;99.90
4293;DHT22;2160;51.172;6.808;2023-02-22T11:37:29;14.50;99.90
4293;DHT22;2160;51.172;6.808;2023-02-22T11:40:10;14.60;99.90
4293;DHT22;2160;51.172;6.808;2023-02-22T11:42:39;14.80;99.90
4293;DHT22;2160;51.172;6.808;2023-02-22T11:45:09;14.80;99.90
4293;DHT22;2160;51.172;6.808;2023-02-22T11:47:46;15.00;99.90
4293;DHT22;2160;51.172;6.808;2023-02-22T11:50:28;15.20;99.90
4293;DHT22;2160;51.172;6.808;2023-02-22T11:53:11;15.50;99.90
4293;DHT22;2160;51.172;6.808;2023-02-22T11:55:49;15.70;99.90
4293;DHT22;2160;51.172;6.808;2023-02-22T11:58:31;15.80;99.90
4293;DHT22;2160;51.172;6.808;2023-02-22T12:01:06;15.60;99.90
4293;DHT22;2160;51.172;6.808;2023-02-22T12:03:48;15.70;99.90
4293;DHT22;2160;51.172;6.808;2023-02-22T12:06:26;16.10;99.90
4293;DHT22;2160;51.172;6.808;2023-02-22T12:09:05;16.20;99.90
4293;DHT22;2160;51.172;6.808;2023-02-22T12:11:45;16.00;99.90
4293;DHT22;2160;51.172;6.808;2023-02-22T12:14:25;16.20;99.90
4293;DHT22;2160;51.172;6.808;2023-02-22T12:17:09;16.10;99.90
4293;DHT22;2160;51.172;6.808;2023-02-22T12:19:41;15.90;99.90
4293;DHT22;2160;51.172;6.808;2023-02-22T12:22:12;15.90;99.90
4293;DHT22;2160;51.172;6.808;2023-02-22T12:24:45;16.00;99.90
4293;DHT22;2160;51.172;6.808;2023-02-22T12:27:18;16.10;99.90
4293;DHT22;2160;51.172;6.808;2023-02-22T12:29:49;16.30;99.90
4293;DHT22;2160;51.172;6.808;2023-02-22T12:32:27;16.30;99.90
4293;DHT22;2160;51.172;6.808;2023-02-22T12:34:59;16.20;99.90
4293;DHT22;2160;51.172;6.808;2023-02-22T12:37:36;16.20;99.90
4293;DHT22;2160;51.172;6.808;2023-02-22T12:40:13;16.20;99.90
4293;DHT22;2160;51.172;6.808;2023-02-22T12:42:47;16.20;99.90
4293;DHT22;2160;51.172;6.808;2023-02-22T12:45:25;16.20;99.90
4293;DHT22;2160;51.172;6.808;2023-02-22T12:48:01;16.40;99.90
4293;DHT22;2160;51.172;6.808;2023-02-22T12:50:32;16.50;99.90
4293;DHT22;2160;51.172;6.808;2023-02-22T12:53:07;16.60;99.90
4293;DHT22;2160;51.172;6.808;2023-02-22T12:55:41;16.70;99.90
4293;DHT22;2160;51.172;6.808;2023-02-22T12:58:18;16.80;99.90
4293;DHT22;2160;51.172;6.808;2023-02-22T13:00:57;16.80;99.90
4293;DHT22;2160;51.172;6.808;2023-02-22T13:03:34;16.70;99.90
4293;DHT22;2160;51.172;6.808;2023-02-22T13:06:18;16.60;99.90
4293;DHT22;2160;51.172;6.808;2023-02-22T13:08:58;16.60;99.90
4293;DHT22;2160;51.172;6.808;2023-02-22T13:11:32;16.90;99.90
4293;DHT22;2160;51.172;6.808;2023-02-22T13:14:13;16.90;99.90
4293;DHT22;2160;51.172;6.808;2023-02-22T13:16:48;17.10;99.90
4293;DHT22;2160;51.172;6.808;2023-02-22T13:19:28;17.00;99.90
4293;DHT22;2160;51.172;6.808;2023-02-22T13:21:58;17.00;99.90
4293;DHT22;2160;51.172;6.808;2023-02-22T13:24:31;17.00;99.90
4293;DHT22;2160;51.172;6.808;2023-02-22T13:27:03;17.20;99.90
4293;DHT22;2160;51.172;6.808;2023-02-22T13:29:35;17.10;99.90
4293;DHT22;2160;51.172;6.808;2023-02-22T13:32:27;16.90;99.90
4293;DHT22;2160;51.172;6.808;2023-02-22T13:35:22;17.20;99.90
4293;DHT22;2160;51.172;6.808;2023-02-22T13:41:05;17.00;99.90
4293;DHT22;2160;51.172;6.808;2023-02-22T13:47:16;17.10;99.90
4293;DHT22;2160;51.172;6.808;2023-02-22T13:52:55;17.30;99.90
4293;DHT22;2160;51.172;6.808;2023-02-22T13:55:26;17.40;99.90
4293;DHT22;2160;51.172;6.808;2023-02-22T13:58:01;17.70;99.90
4293;DHT22;2160;51.172;6.808;2023-02-22T14:00:44;17.80;99.90
4293;DHT22;2160;51.172;6.808;2023-02-22T14:03:27;17.70;99.90
4293;DHT22;2160;51.172;6.808;2023-02-22T14:06:03;17.50;99.90
4293;DHT22;2160;51.172;6.808;2023-02-22T14:08:43;17.50;99.90
4293;DHT22;2160;51.172;6.808;2023-02-22T14:14:19;17.40;99.90
4293;DHT22;2160;51.172;6.808;2023-02-22T14:17:20;17.60;99.90
4293;DHT22;2160;51.172;6.808;2023-02-22T14:23:32;17.90;99.90
4293;DHT22;2160;51.172;6.808;2023-02-22T14:26:10;18.10;99.90
4293;DHT22;2160;51.172;6.808;2023-02-22T14:28:42;18.10;99.90
4293;DHT22;2160;51.172;6.808;2023-02-22T14:31:13;17.60;99.90
4293;DHT22;2160;51.172;6.808;2023-02-22T14:33:55;17.60;99.90
4293;DHT22;2160;51.172;6.808;2023-02-22T14:36:27;17.60;99.90
4293;DHT22;2160;51.172;6.808;2023-02-22T14:41:50;17.40;99.90
4293;DHT22;2160;51.172;6.808;2023-02-22T14:44:23;17.60;99.90
4293;DHT22;2160;51.172;6.808;2023-02-22T14:46:54;17.80;99.90
4293;DHT22;2160;51.172;6.808;2023-02-22T14:49:24;18.20;99.90
4293;DHT22;2160;51.172;6.808;2023-02-22T14:51:57;18.40;99.90
4293;DHT22;2160;51.172;6.808;2023-02-22T14:54:33;18.40;99.90
4293;DHT22;2160;51.172;6.808;2023-02-22T14:57:06;18.20;99.90
4293;DHT22;2160;51.172;6.808;2023-02-22T15:00:05;17.90;99.90
4293;DHT22;2160;51.172;6.808;2023-02-22T15:02:48;17.50;99.90
4293;DHT22;2160;51.172;6.808;2023-02-22T15:05:18;17.50;99.90
4293;DHT22;2160;51.172;6.808;2023-02-22T15:07:51;17.60;99.90
4293;DHT22;2160;51.172;6.808;2023-02-22T15:10:24;17.70;99.90
4293;DHT22;2160;51.172;6.808;2023-02-22T15:12:54;17.50;99.90
4293;DHT22;2160;51.172;6.808;2023-02-22T15:15:35;17.30;99.90
4293;DHT22;2160;51.172;6.808;2023-02-22T15:18:02;17.40;99.90
4293;DHT22;2160;51.172;6.808;2023-02-22T15:20:33;17.40;99.90
4293;DHT22;2160;51.172;6.808;2023-02-22T15:23:02;17.30;99.90
4293;DHT22;2160;51.172;6.808;2023-02-22T15:25:31;17.50;99.90
4293;DHT22;2160;51.172;6.808;2023-02-22T15:28:01;17.60;99.90
4293;DHT22;2160;51.172;6.808;2023-02-22T15:30:30;17.60;99.90
4293;DHT22;2160;51.172;6.808;2023-02-22T15:33:11;17.60;99.90
4293;DHT22;2160;51.172;6.808;2023-02-22T15:35:39;17.80;99.90
4293;DHT22;2160;51.172;6.808;2023-02-22T15:38:17;17.80;99.90
4293;DHT22;2160;51.172;6.808;2023-02-22T15:40:47;17.60;99.90
4293;DHT22;2160;51.172;6.808;2023-02-22T15:43:24;17.60;99.90
4293;DHT22;2160;51.172;6.808;2023-02-22T15:45:53;17.50;99.90
4293;DHT22;2160;51.172;6.808;2023-02-22T15:48:21;17.40;99.90
4293;DHT22;2160;51.172;6.808;2023-02-22T15:50:59;17.30;99.90
4293;DHT22;2160;51.172;6.808;2023-02-22T15:53:34;17.30;99.90
4293;DHT22;2160;51.172;6.808;2023-02-22T15:56:09;17.10;99.90
4293;DHT22;2160;51.172;6.808;2023-02-22T15:58:37;17.10;99.90
4293;DHT22;2160;51.172;6.808;2023-02-22T16:01:06;17.20;99.90
4293;DHT22;2160;51.172;6.808;2023-02-22T16:03:35;17.20;99.90
4293;DHT22;2160;51.172;6.808;2023-02-22T16:06:11;17.20;99.90
4293;DHT22;2160;51.172;6.808;2023-02-22T16:08:43;17.00;99.90
4293;DHT22;2160;51.172;6.808;2023-02-22T16:11:20;17.00;99.90
4293;DHT22;2160;51.172;6.808;2023-02-22T16:13:56;16.90;99.90
4293;DHT22;2160;51.172;6.808;2023-02-22T16:16:29;16.80;99.90
4293;DHT22;2160;51.172;6.808;2023-02-22T16:19:23;16.70;99.90
4293;DHT22;2160;51.172;6.808;2023-02-22T16:21:53;16.70;99.90
4293;DHT22;2160;51.172;6.808;2023-02-22T16:24:28;16.70;99.90
4293;DHT22;2160;51.172;6.808;2023-02-22T16:27:15;16.70;99.90
4293;DHT22;2160;51.172;6.808;2023-02-22T16:29:43;16.80;99.90
4293;DHT22;2160;51.172;6.808;2023-02-22T16:32:11;16.80;99.90
4293;DHT22;2160;51.172;6.808;2023-02-22T16:34:40;16.80;99.90
4293;DHT22;2160;51.172;6.808;2023-02-22T16:37:19;16.80;99.90
4293;DHT22;2160;51.172;6.808;2023-02-22T16:39:48;16.70;99.90
4293;DHT22;2160;51.172;6.808;2023-02-22T16:42:18;16.70;99.90
4293;DHT22;2160;51.172;6.808;2023-02-22T16:44:50;16.90;99.90
4293;DHT22;2160;51.172;6.808;2023-02-22T16:47:18;16.80;99.90
4293;DHT22;2160;51.172;6.808;2023-02-22T16:49:48;16.80;99.90
4293;DHT22;2160;51.172;6.808;2023-02-22T16:52:17;16.70;99.90
4293;DHT22;2160;51.172;6.808;2023-02-22T16:54:45;16.60;99.90
4293;DHT22;2160;51.172;6.808;2023-02-22T16:57:18;16.60;99.90
4293;DHT22;2160;51.172;6.808;2023-02-22T16:59:46;16.70;99.90
4293;DHT22;2160;51.172;6.808;2023-02-22T17:02:17;16.40;99.90
4293;DHT22;2160;51.172;6.808;2023-02-22T17:04:45;16.20;99.90
4293;DHT22;2160;51.172;6.808;2023-02-22T17:07:16;16.20;99.90
4293;DHT22;2160;51.172;6.808;2023-02-22T17:09:43;16.20;99.90
4293;DHT22;2160;51.172;6.808;2023-02-22T17:12:10;16.10;99.90
4293;DHT22;2160;51.172;6.808;2023-02-22T17:14:38;15.80;99.90
4293;DHT22;2160;51.172;6.808;2023-02-22T17:17:06;15.50;99.90
4293;DHT22;2160;51.172;6.808;2023-02-22T17:19:34;15.50;99.90
4293;DHT22;2160;51.172;6.808;2023-02-22T17:22:01;15.50;99.90
4293;DHT22;2160;51.172;6.808;2023-02-22T17:24:31;15.50;99.90
4293;DHT22;2160;51.172;6.808;2023-02-22T17:26:59;15.40;99.90
4293;DHT22;2160;51.172;6.808;2023-02-22T17:29:26;15.70;99.90
4293;DHT22;2160;51.172;6.808;2023-02-22T17:31:55;16.10;99.90
4293;DHT22;2160;51.172;6.808;2023-02-22T17:34:22;16.20;99.90
4293;DHT22;2160;51.172;6.808;2023-02-22T17:36:49;16.20;99.90
4293;DHT22;2160;51.172;6.808;2023-02-22T17:39:16;16.30;99.90
4293;DHT22;2160;51.172;6.808;2023-02-22T17:41:43;16.20;99.90
4293;DHT22;2160;51.172;6.808;2023-02-22T17:44:10;16.10;99.90
4293;DHT22;2160;51.172;6.808;2023-02-22T17:46:37;16.10;99.90
4293;DHT22;2160;51.172;6.808;2023-02-22T17:49:07;16.20;99.90
4293;DHT22;2160;51.172;6.808;2023-02-22T17:51:34;16.30;99.90
4293;DHT22;2160;51.172;6.808;2023-02-22T17:54:03;16.20;99.90
4293;DHT22;2160;51.172;6.808;2023-02-22T17:56:30;16.30;99.90
4293;DHT22;2160;51.172;6.808;2023-02-22T17:58:57;16.30;99.90
4293;DHT22;2160;51.172;6.808;2023-02-22T18:01:26;16.20;99.90
4293;DHT22;2160;51.172;6.808;2023-02-22T18:03:54;16.10;99.90
4293;DHT22;2160;51.172;6.808;2023-02-22T18:06:25;16.00;99.90
4293;DHT22;2160;51.172;6.808;2023-02-22T18:08:53;15.60;99.90
4293;DHT22;2160;51.172;6.808;2023-02-22T18:11:21;15.60;99.90
4293;DHT22;2160;51.172;6.808;2023-02-22T18:13:51;15.60;99.90
4293;DHT22;2160;51.172;6.808;2023-02-22T18:16:18;15.50;99.90
4293;DHT22;2160;51.172;6.808;2023-02-22T18:18:45;15.50;99.90
4293;DHT22;2160;51.172;6.808;2023-02-22T18:21:14;15.50;99.90
4293;DHT22;2160;51.172;6.808;2023-02-22T18:23:42;15.40;99.90
4293;DHT22;2160;51.172;6.808;2023-02-22T18:26:14;15.10;99.90
4293;DHT22;2160;51.172;6.808;2023-02-22T18:28:41;15.20;99.90
4293;DHT22;2160;51.172;6.808;2023-02-22T18:31:09;15.10;99.90
4293;DHT22;2160;51.172;6.808;2023-02-22T18:33:39;15.10;99.90
4293;DHT22;2160;51.172;6.808;2023-02-22T18:36:08;14.80;99.90
4293;DHT22;2160;51.172;6.808;2023-02-22T18:38:36;14.80;99.90
4293;DHT22;2160;51.172;6.808;2023-02-22T18:41:10;14.70;99.90
4293;DHT22;2160;51.172;6.808;2023-02-22T18:43:37;14.70;99.90
4293;DHT22;2160;51.172;6.808;2023-02-22T18:46:06;14.70;99.90
4293;DHT22;2160;51.172;6.808;2023-02-22T18:48:33;14.60;99.90
4293;DHT22;2160;51.172;6.808;2023-02-22T18:51:01;14.30;99.90
4293;DHT22;2160;51.172;6.808;2023-02-22T18:53:30;14.00;99.90
4293;DHT22;2160;51.172;6.808;2023-02-22T18:56:02;13.90;99.90
4293;DHT22;2160;51.172;6.808;2023-02-22T18:58:31;13.80;99.90
4293;DHT22;2160;51.172;6.808;2023-02-22T19:00:58;13.70;99.90
4293;DHT22;2160;51.172;6.808;2023-02-22T19:03:25;13.80;99.90
4293;DHT22;2160;51.172;6.808;2023-02-22T19:05:53;13.90;99.90
4293;DHT22;2160;51.172;6.808;2023-02-22T19:08:20;13.80;99.90
4293;DHT22;2160;51.172;6.808;2023-02-22T19:10:47;13.90;99.90
4293;DHT22;2160;51.172;6.808;2023-02-22T19:13:15;13.70;99.90
4293;DHT22;2160;51.172;6.808;2023-02-22T19:15:43;13.70;99.90
4293;DHT22;2160;51.172;6.808;2023-02-22T19:18:10;13.60;99.90
4293;DHT22;2160;51.172;6.808;2023-02-22T19:20:37;13.60;99.90
4293;DHT22;2160;51.172;6.808;2023-02-22T19:23:04;13.70;99.90
4293;DHT22;2160;51.172;6.808;2023-02-22T19:25:37;13.80;99.90
4293;DHT22;2160;51.172;6.808;2023-02-22T19:28:05;14.00;99.90
4293;DHT22;2160;51.172;6.808;2023-02-22T19:30:32;14.00;99.90
4293;DHT22;2160;51.172;6.808;2023-02-22T19:33:00;13.90;99.90
4293;DHT22;2160;51.172;6.808;2023-02-22T19:35:29;13.80;99.90
4293;DHT22;2160;51.172;6.808;2023-02-22T19:37:56;13.80;99.90
4293;DHT22;2160;51.172;6.808;2023-02-22T19:40:24;13.80;99.90
4293;DHT22;2160;51.172;6.808;2023-02-22T19:42:53;14.00;99.90
4293;DHT22;2160;51.172;6.808;2023-02-22T19:45:21;14.10;99.90
4293;DHT22;2160;51.172;6.808;2023-02-22T19:47:52;14.10;99.90
4293;DHT22;2160;51.172;6.808;2023-02-22T19:50:21;14.20;99.90
4293;DHT22;2160;51.172;6.808;2023-02-22T19:52:48;14.30;99.90
4293;DHT22;2160;51.172;6.808;2023-02-22T19:55:15;14.30;99.90
4293;DHT22;2160;51.172;6.808;2023-02-22T19:57:44;14.10;99.90
4293;DHT22;2160;51.172;6.808;2023-02-22T20:00:12;13.70;99.90
4293;DHT22;2160;51.172;6.808;2023-02-22T20:02:48;13.50;99.90
4293;DHT22;2160;51.172;6.808;2023-02-22T20:05:16;13.30;99.90
4293;DHT22;2160;51.172;6.808;2023-02-22T20:07:45;13.60;99.90
4293;DHT22;2160;51.172;6.808;2023-02-22T20:10:12;13.40;99.90
4293;DHT22;2160;51.172;6.808;2023-02-22T20:12:39;13.40;99.90
4293;DHT22;2160;51.172;6.808;2023-02-22T20:15:07;13.60;99.90
4293;DHT22;2160;51.172;6.808;2023-02-22T20:17:36;13.60;99.90
4293;DHT22;2160;51.172;6.808;2023-02-22T20:20:04;13.70;99.90
4293;DHT22;2160;51.172;6.808;2023-02-22T20:22:32;13.80;99.90
4293;DHT22;2160;51.172;6.808;2023-02-22T20:25:00;13.70;99.90
4293;DHT22;2160;51.172;6.808;2023-02-22T20:27:27;13.40;99.90
4293;DHT22;2160;51.172;6.808;2023-02-22T20:29:54;13.50;99.90
4293;DHT22;2160;51.172;6.808;2023-02-22T20:32:21;13.60;99.90
4293;DHT22;2160;51.172;6.808;2023-02-22T20:34:49;13.70;99.90
4293;DHT22;2160;51.172;6.808;2023-02-22T20:37:16;13.80;99.90
4293;DHT22;2160;51.172;6.808;2023-02-22T20:39:42;13.60;99.90
4293;DHT22;2160;51.172;6.808;2023-02-22T20:42:11;13.60;99.90
4293;DHT22;2160;51.172;6.808;2023-02-22T20:44:40;13.70;99.90
4293;DHT22;2160;51.172;6.808;2023-02-22T20:47:07;13.80;99.90
4293;DHT22;2160;51.172;6.808;2023-02-22T20:49:34;14.10;99.90
4293;DHT22;2160;51.172;6.808;2023-02-22T20:52:01;14.20;99.90
4293;DHT22;2160;51.172;6.808;2023-02-22T20:54:29;14.30;99.90
4293;DHT22;2160;51.172;6.808;2023-02-22T20:56:56;14.30;99.90
4293;DHT22;2160;51.172;6.808;2023-02-22T20:59:24;14.10;99.90
4293;DHT22;2160;51.172;6.808;2023-02-22T21:01:53;13.90;99.90
4293;DHT22;2160;51.172;6.808;2023-02-22T21:04:21;13.70;99.90
4293;DHT22;2160;51.172;6.808;2023-02-22T21:06:48;13.70;99.90
4293;DHT22;2160;51.172;6.808;2023-02-22T21:09:18;13.80;99.90
4293;DHT22;2160;51.172;6.808;2023-02-22T21:11:46;13.90;99.90
4293;DHT22;2160;51.172;6.808;2023-02-22T21:14:14;14.10;99.90
4293;DHT22;2160;51.172;6.808;2023-02-22T21:16:46;14.10;99.90
4293;DHT22;2160;51.172;6.808;2023-02-22T21:19:13;14.00;99.90
4293;DHT22;2160;51.172;6.808;2023-02-22T21:21:53;13.90;99.90
4293;DHT22;2160;51.172;6.808;2023-02-22T21:24:21;13.80;99.90
4293;DHT22;2160;51.172;6.808;2023-02-22T21:26:48;13.50;99.90
4293;DHT22;2160;51.172;6.808;2023-02-22T21:29:17;13.50;99.90
4293;DHT22;2160;51.172;6.808;2023-02-22T21:31:45;13.60;99.90
4293;DHT22;2160;51.172;6.808;2023-02-22T21:34:13;13.80;99.90
4293;DHT22;2160;51.172;6.808;2023-02-22T21:36:42;14.20;99.90
4293;DHT22;2160;51.172;6.808;2023-02-22T21:39:10;14.10;99.90
4293;DHT22;2160;51.172;6.808;2023-02-22T21:41:43;14.10;99.90
4293;DHT22;2160;51.172;6.808;2023-02-22T21:44:10;13.80;99.90
4293;DHT22;2160;51.172;6.808;2023-02-22T21:46:37;13.90;99.90